Time;durP1;ratioP1;P1;durP2;ratioP2;P2;SDS_P1;SDS_P2;PMS_P1;PMS_P2;Temp;Humidity;BMP_temperature;BMP_pressure;BME280_temperature;BME280_humidity;BME280_pressure;Samples;Min_cycle;Max_cycle;Signal;HPM_P1;HPM_P2
2023/04/01 16:02:30;;;;;;;0.60;0.60;;;;;;;14.64;100.00;97973.88;4986363;28;20384;-65
2023/04/01 16:05:00;;;;;;;0.57;0.57;;;;;;;14.65;100.00;97983.28;5024955;28;20208;-64
2023/04/01 16:07:43;;;;;;;1.50;0.90;;;;;;;14.54;100.00;97989.16;5030672;28;20208;-65
2023/04/01 16:10:31;;;;;;;0.40;0.40;;;;;;;14.49;100.00;97986.09;5030642;28;20209;-64
2023/04/01 16:13:15;;;;;;;0.47;0.47;;;;;;;14.41;100.00;97990.13;5013348;28;20207;-65
2023/04/01 16:15:52;;;;;;;0.50;0.50;;;;;;;14.27;100.00;97980.72;5013941;28;20630;-65
2023/04/01 16:18:38;;;;;;;0.57;0.57;;;;;;;14.32;100.00;97991.53;5027389;28;20248;-65
2023/04/01 16:21:11;;;;;;;0.57;0.57;;;;;;;14.32;100.00;97988.94;5018828;28;20202;-65
2023/04/01 16:23:43;;;;;;;0.40;0.40;;;;;;;14.29;100.00;97994.31;5013795;28;20643;-65
2023/04/01 16:26:18;;;;;;;0.50;0.50;;;;;;;14.28;100.00;97995.22;5022310;28;20204;-64
2023/04/01 16:28:54;;;;;;;0.60;0.60;;;;;;;14.21;100.00;97994.00;5029744;28;20852;-65
2023/04/01 16:31:32;;;;;;;0.80;0.80;;;;;;;14.19;100.00;98006.16;5030879;28;20235;-64
2023/04/01 16:34:09;;;;;;;0.60;0.60;;;;;;;14.20;100.00;98007.81;5023560;28;20209;-65
2023/04/01 16:36:40;;;;;;;0.50;0.50;;;;;;;14.11;100.00;98003.28;5020529;28;20229;-65
2023/04/01 16:39:23;;;;;;;0.50;0.50;;;;;;;14.22;100.00;98024.00;5023338;28;20286;-65
2023/04/01 16:41:58;;;;;;;0.50;0.50;;;;;;;14.14;100.00;98026.28;5025682;28;20219;-65
2023/04/01 16:44:27;;;;;;;0.70;0.70;;;;;;;13.97;100.00;98039.44;5024395;28;20206;-65
2023/04/01 16:46:57;;;;;;;0.40;0.40;;;;;;;13.82;100.00;98050.75;5026238;28;20218;-65
2023/04/01 16:49:33;;;;;;;0.60;0.60;;;;;;;13.74;100.00;98037.50;5024902;28;20226;-65
2023/04/01 16:52:14;;;;;;;0.40;0.40;;;;;;;13.59;100.00;98024.72;5023487;28;20209;-66
2023/04/01 16:54:46;;;;;;;0.73;0.73;;;;;;;13.49;100.00;98003.06;5026161;28;20288;-65
2023/04/01 16:57:22;;;;;;;0.50;0.50;;;;;;;13.45;100.00;97986.16;5023365;28;20586;-65
2023/04/01 17:00:02;;;;;;;0.40;0.40;;;;;;;13.40;100.00;97993.34;5024537;28;20205;-65
2023/04/01 17:02:32;;;;;;;0.70;0.70;;;;;;;13.35;100.00;97969.63;5025398;28;20621;-65
2023/04/01 17:05:04;;;;;;;0.87;0.87;;;;;;;13.37;100.00;97961.84;5023297;28;20209;-65
2023/04/01 17:07:45;;;;;;;1.90;1.80;;;;;;;13.36;100.00;97966.16;5028581;28;20227;-65
2023/04/01 17:10:34;;;;;;;0.50;0.50;;;;;;;13.33;100.00;97973.25;5029545;28;20217;-65
2023/04/01 17:13:33;;;;;;;0.47;0.47;;;;;;;13.29;100.00;97988.06;5020187;28;20273;-65
2023/04/01 17:16:12;;;;;;;0.50;0.50;;;;;;;13.26;100.00;97993.38;5013540;28;20665;-65
2023/04/01 17:18:48;;;;;;;0.50;0.50;;;;;;;13.29;100.00;98012.94;5024523;28;20201;-65
2023/04/01 17:21:24;;;;;;;0.60;0.60;;;;;;;13.33;100.00;98017.81;5019480;28;20670;-65
2023/04/01 17:23:54;;;;;;;0.60;0.60;;;;;;;13.40;100.00;98013.94;5028468;28;20270;-65
2023/04/01 17:26:37;;;;;;;0.40;0.40;;;;;;;13.55;100.00;98025.81;5029797;28;20715;-65
2023/04/01 17:29:14;;;;;;;0.67;0.67;;;;;;;13.65;100.00;98018.34;5021761;28;20245;-65
2023/04/01 17:31:52;;;;;;;0.60;0.60;;;;;;;13.72;100.00;98029.06;5021050;28;20671;-65
2023/04/01 17:34:33;;;;;;;0.70;0.70;;;;;;;13.67;100.00;98050.78;5028619;28;20205;-65
2023/04/01 17:37:28;;;;;;;0.40;0.40;;;;;;;13.61;100.00;98048.59;5024754;28;20202;-65
2023/04/01 17:40:07;;;;;;;0.53;0.53;;;;;;;13.48;100.00;98076.06;5025195;28;20223;-64
2023/04/01 17:42:43;;;;;;;0.43;0.43;;;;;;;13.26;100.00;98170.97;5029357;28;20207;-65
2023/04/01 17:45:20;;;;;;;0.40;0.40;;;;;;;13.12;100.00;98179.50;5027978;28;20208;-65
2023/04/01 17:47:59;;;;;;;0.50;0.50;;;;;;;13.10;100.00;98195.94;5018540;28;20686;-64
2023/04/01 17:50:43;;;;;;;0.40;0.40;;;;;;;13.22;100.00;98196.97;5022279;28;20196;-65
2023/04/01 17:53:24;;;;;;;0.70;0.70;;;;;;;13.18;100.00;98196.34;5021412;28;20669;-65
2023/04/01 17:56:04;;;;;;;0.60;0.60;;;;;;;13.24;100.00;98203.69;5017085;28;20197;-65
2023/04/01 17:58:41;;;;;;;0.40;0.40;;;;;;;13.18;100.00;98209.22;5029418;28;20228;-64
2023/04/01 18:01:18;;;;;;;0.40;0.40;;;;;;;13.22;100.00;98213.22;5012565;28;20686;-64
2023/04/01 18:04:14;;;;;;;0.60;0.60;;;;;;;13.21;99.78;98219.31;5024176;28;20213;-65
2023/04/01 18:07:00;;;;;;;0.50;0.50;;;;;;;13.26;97.39;98227.56;4996715;28;20211;-64
2023/04/01 18:09:42;;;;;;;0.50;0.50;;;;;;;13.28;96.89;98225.72;5016725;28;20233;-65
2023/04/01 18:12:18;;;;;;;0.60;0.60;;;;;;;13.23;97.70;98225.19;5021280;28;20206;-65
2023/04/01 18:15:22;;;;;;;0.50;0.50;;;;;;;13.22;97.54;98236.38;5015123;28;20212;-65
2023/04/01 18:18:07;;;;;;;0.50;0.50;;;;;;;13.21;97.40;98246.78;5023750;28;20686;-65
2023/04/01 18:20:43;;;;;;;0.50;0.50;;;;;;;13.23;97.79;98242.38;5009892;28;20292;-65
2023/04/01 18:23:22;;;;;;;0.40;0.40;;;;;;;13.16;98.70;98247.03;5027543;28;20204;-64
2023/04/01 18:25:56;;;;;;;0.40;0.40;;;;;;;13.23;98.84;98235.47;5021992;28;20586;-65
2023/04/01 18:28:31;;;;;;;0.50;0.50;;;;;;;13.19;98.30;98231.44;5013996;28;20221;-65
2023/04/01 18:31:07;;;;;;;0.50;0.50;;;;;;;13.21;98.80;98216.75;5033673;28;20368;-65
2023/04/01 18:33:43;;;;;;;0.47;0.47;;;;;;;13.17;98.35;98227.28;5019608;28;20209;-65
2023/04/01 18:36:20;;;;;;;0.50;0.50;;;;;;;13.07;99.19;98232.97;5025367;28;20202;-65
2023/04/01 18:38:51;;;;;;;0.50;0.50;;;;;;;13.04;100.00;98219.44;5014778;28;20203;-65
2023/04/01 18:41:32;;;;;;;0.60;0.60;;;;;;;13.02;100.00;98223.88;5017217;28;20210;-65
2023/04/01 18:44:13;;;;;;;0.40;0.40;;;;;;;12.93;100.00;98235.50;5013439;28;20580;-65
2023/04/01 18:46:48;;;;;;;0.57;0.57;;;;;;;12.80;100.00;98229.41;5018347;28;20208;-65
2023/04/01 18:49:21;;;;;;;0.40;0.40;;;;;;;12.85;100.00;98242.00;5028937;28;20224;-64
2023/04/01 18:51:53;;;;;;;0.50;0.50;;;;;;;12.76;100.00;98247.69;5020989;28;20666;-65
2023/04/01 18:54:26;;;;;;;0.50;0.50;;;;;;;12.49;100.00;98234.66;5023975;28;20305;-63
2023/04/01 18:57:09;;;;;;;0.47;0.47;;;;;;;12.51;100.00;98259.34;5026263;28;20251;-65
2023/04/01 18:59:41;;;;;;;0.40;0.40;;;;;;;12.43;100.00;98269.25;5031843;28;20689;-65
2023/04/01 19:02:20;;;;;;;0.47;0.47;;;;;;;12.32;100.00;98276.69;5026642;28;20825;-65
2023/04/01 19:04:53;;;;;;;0.40;0.40;;;;;;;12.26;100.00;98279.59;5021025;28;20665;-65
2023/04/01 19:07:45;;;;;;;0.60;0.60;;;;;;;12.16;100.00;98268.16;5024304;28;20201;-65
2023/04/01 19:10:18;;;;;;;0.43;0.43;;;;;;;11.96;100.00;98260.72;5027579;28;20225;-65
2023/04/01 19:13:00;;;;;;;1.53;1.53;;;;;;;11.97;100.00;98262.38;5033526;28;20290;-65
2023/04/01 19:15:34;;;;;;;0.57;0.57;;;;;;;11.97;100.00;98262.38;5023589;28;20217;-65
2023/04/01 19:18:36;;;;;;;0.60;0.60;;;;;;;11.96;100.00;98258.13;5008088;28;20708;-65
2023/04/01 19:21:10;;;;;;;0.43;0.43;;;;;;;11.96;100.00;98260.72;5022574;28;20201;-65
2023/04/01 19:24:04;;;;;;;0.40;0.40;;;;;;;11.86;100.00;98260.38;5021906;28;20254;-64
2023/04/01 19:26:36;;;;;;;1.03;1.03;;;;;;;11.84;100.00;98266.50;5026176;28;20233;-64
2023/04/01 19:29:12;;;;;;;0.40;0.40;;;;;;;11.78;100.00;98271.97;5027800;28;20295;-65
2023/04/01 19:31:52;;;;;;;0.50;0.50;;;;;;;11.70;100.00;98258.66;5030854;28;20197;-65
2023/04/01 19:34:29;;;;;;;0.40;0.40;;;;;;;11.70;100.00;98279.19;5020411;28;20271;-65
2023/04/01 19:37:02;;;;;;;0.57;0.57;;;;;;;11.62;100.00;98282.19;5016497;28;20216;-65
2023/04/01 19:39:40;;;;;;;0.40;0.40;;;;;;;11.53;100.00;98286.03;5021404;28;20217;-65
2023/04/01 19:42:16;;;;;;;0.57;0.57;;;;;;;11.38;100.00;98289.41;5019478;28;20201;-65
2023/04/01 19:44:56;;;;;;;0.57;0.57;;;;;;;11.29;100.00;98295.00;5024600;28;20581;-64
2023/04/01 19:47:41;;;;;;;0.60;0.60;;;;;;;11.32;100.00;98299.97;5028594;28;20204;-65
2023/04/01 19:50:23;;;;;;;0.70;0.70;;;;;;;11.32;100.00;98307.69;5019641;28;20218;-65
2023/04/01 19:52:54;;;;;;;0.60;0.60;;;;;;;11.38;100.00;98315.06;5029914;28;20205;-64
2023/04/01 19:55:34;;;;;;;0.50;0.50;;;;;;;11.38;100.00;98311.66;5025166;28;20550;-65
2023/04/01 19:58:12;;;;;;;0.47;0.47;;;;;;;11.37;100.00;98313.38;5027560;28;20213;-65
2023/04/01 20:00:44;;;;;;;0.50;0.50;;;;;;;11.33;100.00;98311.06;5031458;28;20576;-65
2023/04/01 20:03:28;;;;;;;0.40;0.40;;;;;;;11.30;100.00;98312.06;5027559;28;20270;-65
2023/04/01 20:06:10;;;;;;;0.40;0.40;;;;;;;11.13;100.00;98290.72;5019581;28;20627;-64
2023/04/01 20:08:45;;;;;;;0.60;0.60;;;;;;;11.23;100.00;98323.53;5019718;28;20206;-65
2023/04/01 20:11:26;;;;;;;0.57;0.57;;;;;;;11.22;100.00;98316.75;5018606;28;20300;-64
2023/04/01 20:14:05;;;;;;;0.87;0.87;;;;;;;11.15;100.00;98333.34;5021325;28;20588;-64
2023/04/01 20:16:51;;;;;;;0.60;0.60;;;;;;;11.14;100.00;98326.56;5017035;28;20670;-64
2023/04/01 20:19:28;;;;;;;0.53;0.53;;;;;;;11.10;100.00;98337.88;5023857;28;20798;-63
2023/04/01 20:21:59;;;;;;;0.60;0.60;;;;;;;11.12;99.13;98337.78;5023490;28;20284;-66
2023/04/01 20:24:30;;;;;;;0.53;0.53;;;;;;;11.16;99.03;98334.16;5024489;28;21522;-63
2023/04/01 20:27:04;;;;;;;0.40;0.40;;;;;;;11.08;99.76;98332.00;5014702;28;20218;-64
2023/04/01 20:29:44;;;;;;;0.50;0.50;;;;;;;11.07;99.03;98335.47;5017479;28;20747;-65
2023/04/01 20:32:43;;;;;;;0.50;0.50;;;;;;;11.07;98.73;98340.59;5017679;28;20204;-65
2023/04/01 20:35:34;;;;;;;0.53;0.53;;;;;;;11.03;98.91;98346.75;5025363;28;20264;-65
2023/04/01 20:38:23;;;;;;;0.40;0.40;;;;;;;11.00;99.67;98345.19;5026499;28;20201;-65
2023/04/01 20:40:52;;;;;;;0.40;0.40;;;;;;;10.97;99.04;98352.19;5024669;28;20197;-65
2023/04/01 20:43:43;;;;;;;0.40;0.40;;;;;;;11.00;99.00;98359.75;5029326;28;20672;-65
2023/04/01 20:46:20;;;;;;;0.50;0.50;;;;;;;10.94;98.60;98357.47;5023726;28;20689;-64
2023/04/01 20:49:01;;;;;;;0.40;0.40;;;;;;;10.94;99.01;98362.59;5029738;28;20296;-65
2023/04/01 20:51:34;;;;;;;0.40;0.40;;;;;;;10.89;99.32;98364.53;5010845;28;20208;-65
2023/04/01 20:54:17;;;;;;;0.50;0.50;;;;;;;10.90;99.54;98373.91;5027686;28;20273;-65
2023/04/01 20:56:56;;;;;;;0.40;0.40;;;;;;;10.81;100.00;98380.31;5012316;28;20206;-63
2023/04/01 20:59:44;;;;;;;0.50;0.50;;;;;;;10.80;100.00;98382.91;5026438;28;20206;-63
2023/04/01 21:02:30;;;;;;;0.57;0.57;;;;;;;10.84;99.99;98387.84;5022031;28;20794;-64
2023/04/01 21:05:35;;;;;;;0.40;0.40;;;;;;;10.89;100.00;98396.13;5020007;28;20198;-64
2023/04/01 21:08:13;;;;;;;0.50;0.50;;;;;;;10.84;100.00;98402.41;5028146;28;20204;-65
2023/04/01 21:10:45;;;;;;;0.50;0.50;;;;;;;10.87;100.00;98399.69;5020349;28;20225;-64
2023/04/01 21:13:25;;;;;;;0.93;0.93;;;;;;;10.81;100.00;98405.09;5030656;28;20284;-64
2023/04/01 21:16:07;;;;;;;0.50;0.50;;;;;;;10.74;100.00;98409.69;5011480;28;20198;-64
2023/04/01 21:18:53;;;;;;;0.40;0.40;;;;;;;10.69;100.00;98395.44;5025620;28;20268;-64
2023/04/01 21:21:31;;;;;;;0.40;0.40;;;;;;;10.64;100.00;98407.59;5030558;28;20219;-64
2023/04/01 21:24:30;;;;;;;0.47;0.47;;;;;;;10.65;100.00;98414.41;5030530;28;20780;-64
2023/04/01 21:27:06;;;;;;;0.60;0.60;;;;;;;10.66;100.00;98421.19;5021614;28;20205;-65
2023/04/01 21:29:50;;;;;;;0.40;0.40;;;;;;;10.67;100.00;98418.56;5019277;28;20304;-64
2023/04/01 21:32:49;;;;;;;0.60;0.60;;;;;;;10.70;100.00;98422.69;5028148;28;20202;-65
2023/04/01 21:35:29;;;;;;;0.60;0.60;;;;;;;10.72;99.85;98421.75;5027456;28;20254;-64
2023/04/01 21:38:28;;;;;;;0.70;0.70;;;;;;;10.68;100.00;98424.50;5029286;28;20193;-64
2023/04/01 21:41:09;;;;;;;0.50;0.50;;;;;;;10.63;100.00;98426.47;5012833;28;20205;-64
2023/04/01 21:43:54;;;;;;;0.57;0.57;;;;;;;10.60;100.00;98426.63;5023313;28;20206;-64
2023/04/01 21:46:52;;;;;;;0.50;0.50;;;;;;;10.50;100.00;98421.88;5026560;28;20232;-64
2023/04/01 21:50:04;;;;;;;0.50;0.50;;;;;;;10.32;100.00;98432.97;5023102;28;20282;-64
2023/04/01 21:52:53;;;;;;;0.50;0.50;;;;;;;10.15;100.00;98429.47;5004012;28;20198;-64
2023/04/01 21:55:46;;;;;;;0.63;0.63;;;;;;;10.00;100.00;98425.84;5029514;28;20202;-64
2023/04/01 21:59:02;;;;;;;0.60;0.60;;;;;;;9.96;100.00;98416.63;5030388;28;20216;-64
2023/04/01 22:01:52;;;;;;;0.80;0.80;;;;;;;9.88;100.00;98424.66;5020037;28;20221;-64
2023/04/01 22:04:47;;;;;;;0.50;0.50;;;;;;;9.77;100.00;98434.50;5032459;28;20296;-64
2023/04/01 22:07:17;;;;;;;0.60;0.60;;;;;;;9.79;100.00;98445.50;5031480;28;20201;-64
2023/04/01 22:09:54;;;;;;;0.53;0.53;;;;;;;9.61;100.00;98394.25;5033460;28;20635;-64
2023/04/01 22:12:29;;;;;;;0.70;0.70;;;;;;;9.86;100.00;98444.34;5033454;28;20334;-64
2023/04/01 22:15:04;;;;;;;0.50;0.50;;;;;;;9.75;100.00;98436.31;5021602;28;20228;-64
2023/04/01 22:17:39;;;;;;;0.50;0.50;;;;;;;9.76;100.00;98453.28;5025855;28;20630;-64
2023/04/01 22:20:23;;;;;;;0.50;0.50;;;;;;;9.73;100.00;98455.16;5033189;28;20681;-64
2023/04/01 22:23:17;;;;;;;0.50;0.50;;;;;;;9.69;100.00;98457.03;5033762;28;20267;-64
2023/04/01 22:25:53;;;;;;;0.63;0.63;;;;;;;9.72;100.00;98461.19;5019478;28;20200;-64
2023/04/01 22:28:27;;;;;;;0.50;0.50;;;;;;;9.68;100.00;98467.31;5025050;28;20208;-64
2023/04/01 22:31:00;;;;;;;0.60;0.60;;;;;;;9.65;100.00;98450.38;5025028;28;20222;-64
2023/04/01 22:33:34;;;;;;;0.60;0.60;;;;;;;9.72;100.00;98463.75;5025256;28;20202;-64
2023/04/01 22:36:11;;;;;;;0.57;0.57;;;;;;;9.62;100.00;98445.38;5025254;28;20198;-63
2023/04/01 22:38:55;;;;;;;0.50;0.50;;;;;;;9.62;100.00;98455.63;5024853;28;20233;-64
2023/04/01 22:41:33;;;;;;;0.50;0.50;;;;;;;9.64;100.00;98453.81;5023109;28;20205;-64
2023/04/01 22:44:00;;;;;;;0.50;0.50;;;;;;;9.61;100.00;98458.22;5018327;28;20260;-64
2023/04/01 22:46:51;;;;;;;0.50;0.50;;;;;;;9.68;100.00;98454.53;5029654;28;20665;-64
2023/04/01 22:49:23;;;;;;;0.77;0.77;;;;;;;9.74;100.00;98462.78;5027939;28;20206;-64
2023/04/01 22:51:55;;;;;;;0.50;0.50;;;;;;;9.81;100.00;98460.78;5018585;28;20692;-65
2023/04/01 22:54:28;;;;;;;0.57;0.57;;;;;;;9.86;100.00;98463.97;5024220;28;20570;-64
2023/04/01 22:56:58;;;;;;;0.50;0.50;;;;;;;9.91;100.00;98467.19;5026816;28;20260;-64
2023/04/01 22:59:32;;;;;;;0.40;0.40;;;;;;;9.90;100.00;98465.53;5032544;28;20194;-64
2023/04/01 23:02:09;;;;;;;0.53;0.53;;;;;;;9.82;100.00;98452.22;5031836;28;20248;-64
2023/04/01 23:04:43;;;;;;;0.53;0.53;;;;;;;9.94;100.00;98483.25;5022762;28;20280;-64
2023/04/01 23:07:27;;;;;;;0.50;0.50;;;;;;;9.99;100.00;98475.38;5021223;28;20253;-64
2023/04/01 23:09:56;;;;;;;0.50;0.50;;;;;;;10.02;100.00;98480.34;5018724;28;20678;-64
2023/04/01 23:12:24;;;;;;;0.50;0.50;;;;;;;10.05;99.85;98480.22;5027626;28;20217;-64
2023/04/01 23:14:54;;;;;;;0.77;0.77;;;;;;;10.04;99.58;98468.34;5013107;28;20202;-64
2023/04/01 23:17:35;;;;;;;0.70;0.70;;;;;;;9.99;99.62;98472.81;5028072;28;20205;-64
2023/04/01 23:20:16;;;;;;;0.50;0.50;;;;;;;9.94;99.25;98465.34;5021557;28;20253;-64
2023/04/01 23:22:54;;;;;;;0.60;0.60;;;;;;;9.89;99.19;98463.84;5032203;28;20200;-64
2023/04/01 23:25:31;;;;;;;0.50;0.50;;;;;;;9.84;98.73;98453.81;5032603;28;20227;-64
2023/04/01 23:28:18;;;;;;;0.43;0.43;;;;;;;9.77;99.17;98461.81;5024518;28;20580;-64
2023/04/01 23:30:51;;;;;;;0.50;0.50;;;;;;;9.81;99.07;98461.63;5014048;28;20221;-64
2023/04/01 23:33:29;;;;;;;0.60;0.60;;;;;;;9.79;99.05;98467.72;5018229;28;20260;-64
2023/04/01 23:36:04;;;;;;;0.60;0.60;;;;;;;9.69;98.80;98469.00;5023527;28;20847;-64
2023/04/01 23:38:33;;;;;;;0.50;0.50;;;;;;;9.60;99.15;98471.91;5025904;28;20197;-64
2023/04/01 23:41:00;;;;;;;0.57;0.57;;;;;;;9.53;98.31;98466.22;5032386;28;20189;-63
2023/04/01 23:43:30;;;;;;;0.50;0.50;;;;;;;9.55;98.50;98453.34;5032401;28;20205;-64
2023/04/01 23:45:59;;;;;;;0.57;0.57;;;;;;;9.63;98.08;98456.44;5032134;28;20693;-64
2023/04/01 23:48:33;;;;;;;0.50;0.50;;;;;;;9.64;98.17;98453.81;5024283;28;20209;-64
2023/04/01 23:51:01;;;;;;;0.67;0.67;;;;;;;9.68;98.02;98462.19;5031268;28;20318;-64
2023/04/01 23:53:33;;;;;;;0.50;0.50;;;;;;;9.71;98.29;98477.41;5032491;28;20236;-64
2023/04/01 23:56:02;;;;;;;0.50;0.50;;;;;;;9.76;97.75;98484.00;5031780;28;20197;-64
2023/04/01 23:58:42;;;;;;;0.50;0.50;;;;;;;9.76;97.60;98473.78;5030772;28;20232;-64
